Time;durP1;ratioP1;P1;durP2;ratioP2;P2;SDS_P1;SDS_P2;PMS_P1;PMS_P2;Temp;Humidity;BMP_temperature;BMP_pressure;BME280_temperature;BME280_humidity;BME280_pressure;Samples;Min_cycle;Max_cycle;Signal;HPM_P1;HPM_P2
2024/03/05 00:00:50;;;;;;;30.50;19.60;;;;;;;9.10;71.74;95736.44;4991913;28;20267;-71
2024/03/05 00:03:15;;;;;;;38.57;20.33;;;;;;;8.99;72.34;95732.63;4989156;28;20448;-70
2024/03/05 00:05:41;;;;;;;38.10;23.40;;;;;;;9.07;72.44;95736.59;4988251;28;20177;-71
2024/03/05 00:08:06;;;;;;;33.77;20.27;;;;;;;9.02;72.52;95737.72;4988116;28;20173;-69
2024/03/05 00:10:32;;;;;;;33.73;18.37;;;;;;;8.99;72.37;95732.63;4987951;28;20600;-70
2024/03/05 00:12:57;;;;;;;38.97;21.40;;;;;;;9.03;71.75;95739.44;4970101;28;20672;-71
2024/03/05 00:15:23;;;;;;;30.30;19.90;;;;;;;9.18;71.45;95740.44;4986993;28;20180;-70
2024/03/05 00:17:48;;;;;;;35.83;20.83;;;;;;;9.02;72.06;95740.31;4988010;28;20169;-71
2024/03/05 00:20:18;;;;;;;32.77;20.10;;;;;;;8.70;72.83;95745.34;4988471;28;20181;-71
2024/03/05 00:22:45;;;;;;;37.13;19.50;;;;;;;8.66;74.07;95752.47;4988058;28;20196;-70
2024/03/05 00:25:11;;;;;;;36.43;21.83;;;;;;;8.97;72.98;95743.16;4988043;28;20511;-71
2024/03/05 00:27:37;;;;;;;37.30;20.53;;;;;;;9.02;72.56;95748.19;4987997;28;20570;-71
2024/03/05 00:30:04;;;;;;;33.73;19.30;;;;;;;8.92;72.33;95741.69;4988278;28;20571;-70
2024/03/05 00:32:30;;;;;;;33.67;19.17;;;;;;;8.93;72.21;95746.00;4987686;28;20572;-71
2024/03/05 00:34:55;;;;;;;34.07;18.93;;;;;;;8.88;72.64;95747.09;4988088;28;20507;-69
2024/03/05 00:37:20;;;;;;;40.77;22.40;;;;;;;9.07;71.96;95744.44;4987877;28;20189;-70
2024/03/05 00:39:46;;;;;;;34.13;20.20;;;;;;;8.91;72.58;95746.09;4987744;28;20679;-71
2024/03/05 00:42:11;;;;;;;33.03;18.93;;;;;;;8.90;72.44;95747.00;4987482;28;20169;-71
2024/03/05 00:44:37;;;;;;;35.57;19.10;;;;;;;8.92;72.47;95752.16;4987487;28;20189;-70
2024/03/05 00:47:02;;;;;;;39.20;21.77;;;;;;;8.92;72.40;95747.78;4987446;28;20183;-71
2024/03/05 00:49:28;;;;;;;36.03;20.40;;;;;;;8.90;72.73;95750.50;4987378;28;20204;-70
2024/03/05 00:51:54;;;;;;;32.90;18.07;;;;;;;8.87;72.37;95747.16;4987364;28;20205;-71
2024/03/05 00:54:20;;;;;;;35.97;20.00;;;;;;;8.91;72.28;95753.94;4987711;28;20432;-70
2024/03/05 00:56:46;;;;;;;36.33;21.10;;;;;;;8.92;72.71;95742.53;4990009;28;20423;-70
2024/03/05 00:59:12;;;;;;;36.20;18.77;;;;;;;8.98;72.30;95750.13;4996031;28;20169;-71
2024/03/05 01:01:38;;;;;;;31.10;18.13;;;;;;;8.93;72.79;95743.38;4995034;28;20180;-69
2024/03/05 01:04:05;;;;;;;31.60;19.67;;;;;;;8.83;72.39;95743.81;4994818;28;20301;-72
2024/03/05 01:06:30;;;;;;;32.10;20.67;;;;;;;8.89;72.45;95743.53;4988805;28;20192;-75
2024/03/05 01:08:56;;;;;;;35.83;20.20;;;;;;;8.80;72.97;95743.97;4987921;28;20432;-72
2024/03/05 01:11:21;;;;;;;31.53;18.50;;;;;;;8.64;73.38;95746.47;4987765;28;20324;-70
2024/03/05 01:13:47;;;;;;;29.27;18.67;;;;;;;8.84;72.68;95747.31;4988269;28;20424;-70
2024/03/05 01:16:12;;;;;;;33.43;18.73;;;;;;;8.88;72.77;95746.22;4988220;28;20675;-70
2024/03/05 01:18:38;;;;;;;30.73;19.10;;;;;;;8.97;72.49;95743.16;4987934;28;20242;-71
2024/03/05 01:21:05;;;;;;;31.20;20.60;;;;;;;8.87;72.64;95742.75;4987488;28;20161;-69
2024/03/05 01:23:32;;;;;;;35.07;20.07;;;;;;;8.62;73.98;95752.69;4987758;28;20220;-71
2024/03/05 01:25:59;;;;;;;36.87;19.80;;;;;;;8.79;73.32;95757.16;4988169;28;20886;-70
2024/03/05 01:28:27;;;;;;;34.47;19.13;;;;;;;8.87;72.84;95749.78;4987732;28;20436;-71
2024/03/05 01:30:53;;;;;;;28.97;19.00;;;;;;;8.60;73.36;95750.16;4987546;28;20550;-71
2024/03/05 01:33:22;;;;;;;30.87;18.60;;;;;;;8.62;74.24;95755.28;4987213;28;20523;-71
2024/03/05 01:35:48;;;;;;;32.97;19.03;;;;;;;8.53;73.88;95751.38;4987003;28;20460;-71
2024/03/05 01:38:14;;;;;;;32.70;20.37;;;;;;;8.59;74.48;95755.44;4987694;28;20447;-71
2024/03/05 01:40:41;;;;;;;34.77;19.20;;;;;;;8.46;74.19;95757.78;4986877;28;20223;-71
2024/03/05 01:43:07;;;;;;;37.53;19.03;;;;;;;8.24;75.23;95755.25;4986911;28;20435;-71
2024/03/05 01:45:33;;;;;;;32.23;20.70;;;;;;;8.18;75.61;95759.00;4987127;28;20446;-71
2024/03/05 01:48:00;;;;;;;35.10;21.20;;;;;;;8.36;74.99;95756.47;4986668;28;20518;-71
2024/03/05 01:50:28;;;;;;;32.97;17.93;;;;;;;8.62;73.53;95750.94;4986502;28;20499;-71
2024/03/05 01:52:54;;;;;;;33.37;19.73;;;;;;;8.53;74.60;95746.13;4986474;28;20435;-71
2024/03/05 01:55:21;;;;;;;35.10;19.17;;;;;;;8.15;75.02;95740.84;4986670;28;20409;-70
2024/03/05 01:57:49;;;;;;;31.00;19.50;;;;;;;8.02;75.94;95748.38;4986597;28;20507;-70
2024/03/05 02:00:16;;;;;;;32.67;19.10;;;;;;;8.43;74.65;95744.84;4986767;28;20916;-70
2024/03/05 02:02:45;;;;;;;35.00;20.63;;;;;;;8.64;74.27;95749.06;4986557;28;20795;-70
2024/03/05 02:05:12;;;;;;;40.20;20.00;;;;;;;8.87;73.08;95750.63;4986200;28;21391;-71
2024/03/05 02:07:39;;;;;;;36.47;21.20;;;;;;;8.82;72.91;95741.28;4986105;28;20454;-70
2024/03/05 02:10:07;;;;;;;36.83;22.33;;;;;;;8.64;73.61;95753.47;4986451;28;20474;-70
2024/03/05 02:12:36;;;;;;;45.80;22.70;;;;;;;8.39;74.08;95741.50;4985653;28;20562;-70
2024/03/05 02:15:04;;;;;;;30.53;18.43;;;;;;;8.65;73.59;95753.41;4986429;28;20835;-70
2024/03/05 02:17:30;;;;;;;30.63;19.27;;;;;;;8.78;72.73;95751.03;4986196;28;20439;-71
2024/03/05 02:19:55;;;;;;;32.87;20.13;;;;;;;8.83;72.53;95750.81;4987180;28;20420;-71
2024/03/05 02:22:21;;;;;;;32.37;17.57;;;;;;;8.68;73.38;95755.88;4986672;28;20272;-70
2024/03/05 02:24:46;;;;;;;29.23;18.70;;;;;;;8.93;72.58;95757.34;4987065;28;20208;-69
2024/03/05 02:27:13;;;;;;;30.40;19.43;;;;;;;8.92;72.87;95763.47;4986390;28;20209;-71
2024/03/05 02:29:39;;;;;;;37.93;22.40;;;;;;;8.84;73.24;95755.16;4985814;28;20288;-70
2024/03/05 02:32:06;;;;;;;29.93;17.70;;;;;;;9.00;72.72;95766.59;4985432;28;21098;-70
2024/03/05 02:34:32;;;;;;;36.03;18.90;;;;;;;9.00;72.07;95761.34;4985830;28;20204;-71
2024/03/05 02:36:58;;;;;;;38.10;20.63;;;;;;;8.90;72.68;95757.47;4985730;28;20478;-71
2024/03/05 02:39:23;;;;;;;34.50;19.47;;;;;;;8.97;72.66;95756.25;4988206;28;20447;-71
2024/03/05 02:41:49;;;;;;;35.13;20.20;;;;;;;9.04;72.47;95751.56;4989889;28;20195;-71
2024/03/05 02:44:16;;;;;;;35.37;18.90;;;;;;;9.06;72.23;95755.81;4990679;28;20292;-70
2024/03/05 02:46:41;;;;;;;31.20;17.90;;;;;;;8.89;72.50;95758.41;4989822;28;20180;-70
2024/03/05 02:49:08;;;;;;;29.53;19.17;;;;;;;8.85;72.70;95755.06;4989524;28;21275;-71
2024/03/05 02:51:34;;;;;;;30.13;19.53;;;;;;;8.90;72.47;95765.31;4989564;28;20680;-70
2024/03/05 02:54:00;;;;;;;37.70;18.97;;;;;;;9.01;72.14;95762.19;4989717;28;20447;-70
2024/03/05 02:56:25;;;;;;;34.67;18.73;;;;;;;8.89;72.41;95767.09;4989894;28;21006;-71
2024/03/05 02:58:51;;;;;;;37.03;20.50;;;;;;;9.00;72.43;95766.59;4990615;28;20180;-70
2024/03/05 03:01:17;;;;;;;33.97;19.53;;;;;;;8.87;73.01;95775.94;4990008;28;20536;-70
2024/03/05 03:03:42;;;;;;;34.93;20.03;;;;;;;8.91;72.63;95777.50;4989956;28;20243;-71
2024/03/05 03:06:17;;;;;;;37.03;21.00;;;;;;;8.99;72.50;95774.50;4989825;28;20176;-70
2024/03/05 03:08:43;;;;;;;35.37;22.37;;;;;;;8.97;72.31;95771.13;4989692;28;20188;-71
2024/03/05 03:11:14;;;;;;;32.40;20.63;;;;;;;8.91;73.04;95780.13;4989266;28;20858;-71
2024/03/05 03:13:40;;;;;;;37.83;20.97;;;;;;;8.97;72.71;95781.56;4989114;28;20502;-71
2024/03/05 03:16:05;;;;;;;36.23;20.47;;;;;;;8.94;72.67;95782.56;4989161;28;20977;-71
2024/03/05 03:18:31;;;;;;;29.07;19.10;;;;;;;8.87;73.22;95781.16;4971856;28;20173;-71
2024/03/05 03:20:57;;;;;;;35.50;20.40;;;;;;;8.86;72.90;95787.34;4989104;28;20549;-71
2024/03/05 03:23:23;;;;;;;37.83;20.17;;;;;;;8.92;72.96;95787.03;4989019;28;20439;-71
2024/03/05 03:25:48;;;;;;;32.10;19.40;;;;;;;9.02;72.19;95790.06;4988983;28;20205;-70
2024/03/05 03:28:14;;;;;;;33.17;20.20;;;;;;;8.94;72.73;95790.44;4988966;28;20172;-71
2024/03/05 03:30:39;;;;;;;34.13;20.13;;;;;;;8.89;72.50;95795.03;4988783;28;20169;-70
2024/03/05 03:33:05;;;;;;;37.73;22.27;;;;;;;8.87;72.84;95789.03;4989130;28;20655;-72
2024/03/05 03:35:30;;;;;;;39.83;22.40;;;;;;;8.93;73.17;95791.34;4988855;28;20185;-70
2024/03/05 03:37:56;;;;;;;34.37;22.10;;;;;;;8.91;72.83;95787.97;4989042;28;20319;-70
2024/03/05 03:40:21;;;;;;;32.23;22.07;;;;;;;8.88;73.14;95794.19;4988924;28;20534;-70
2024/03/05 03:42:48;;;;;;;32.67;20.77;;;;;;;8.82;73.05;95791.00;4988948;28;20189;-70
2024/03/05 03:45:14;;;;;;;35.53;21.10;;;;;;;8.83;73.35;95795.31;4989580;28;20255;-71
2024/03/05 03:47:41;;;;;;;37.50;23.40;;;;;;;8.99;73.07;95796.28;4988795;28;20416;-70
2024/03/05 03:50:07;;;;;;;32.43;20.60;;;;;;;8.91;72.86;95795.81;4988436;28;20936;-71
2024/03/05 03:52:33;;;;;;;38.13;22.20;;;;;;;8.82;73.55;95798.84;4988372;28;20475;-71
2024/03/05 03:54:58;;;;;;;37.33;22.30;;;;;;;8.94;72.98;95793.03;4988600;28;20177;-70
2024/03/05 03:57:26;;;;;;;33.57;19.63;;;;;;;8.85;73.26;95809.16;4988644;28;20177;-71
2024/03/05 03:59:53;;;;;;;37.87;19.77;;;;;;;8.98;72.62;95804.22;4988550;28;20169;-70
2024/03/05 04:02:20;;;;;;;31.03;18.37;;;;;;;9.04;72.40;95807.38;4988611;28;20463;-70
2024/03/05 04:04:45;;;;;;;50.30;21.23;;;;;;;8.97;73.04;95810.38;4988464;28;20412;-71
2024/03/05 04:07:11;;;;;;;37.07;20.10;;;;;;;8.93;72.95;95807.06;4988185;28;20934;-70
2024/03/05 04:09:36;;;;;;;31.27;19.30;;;;;;;9.04;72.41;95811.78;4988399;28;20195;-70
2024/03/05 04:12:02;;;;;;;36.27;20.60;;;;;;;9.01;72.33;95809.31;4988176;28;20201;-70
2024/03/05 04:14:27;;;;;;;37.27;23.20;;;;;;;9.01;72.85;95819.78;4988615;28;20200;-70
2024/03/05 04:16:52;;;;;;;36.73;21.33;;;;;;;9.01;73.07;95811.94;4988843;28;20666;-70
2024/03/05 04:19:18;;;;;;;36.47;21.87;;;;;;;8.99;72.72;95806.75;4988245;28;20173;-70
2024/03/05 04:21:45;;;;;;;40.50;21.90;;;;;;;9.04;73.00;95814.38;4970308;28;20173;-71
2024/03/05 04:24:13;;;;;;;40.23;21.80;;;;;;;9.02;73.11;95821.47;4988197;28;20204;-70
2024/03/05 04:26:40;;;;;;;40.57;22.23;;;;;;;9.01;73.07;95820.63;4988293;28;20408;-70
2024/03/05 04:29:07;;;;;;;36.17;21.93;;;;;;;8.79;73.72;95819.94;4988380;28;20786;-69
2024/03/05 04:31:35;;;;;;;38.27;20.83;;;;;;;8.85;73.34;95814.41;4987667;28;20463;-70
2024/03/05 04:34:02;;;;;;;36.17;19.90;;;;;;;8.88;73.74;95824.72;4987750;28;20539;-71
2024/03/05 04:36:29;;;;;;;36.70;21.20;;;;;;;8.89;72.82;95815.97;4988072;28;20467;-70
2024/03/05 04:38:55;;;;;;;35.07;21.13;;;;;;;9.02;72.79;95821.47;4988125;28;20422;-70
2024/03/05 04:41:20;;;;;;;41.00;22.93;;;;;;;9.00;72.64;95823.28;4988026;28;20424;-70
2024/03/05 04:43:46;;;;;;;36.97;20.90;;;;;;;9.05;72.62;95818.72;4987760;28;20324;-70
2024/03/05 04:46:11;;;;;;;41.00;21.00;;;;;;;9.07;72.36;95820.34;4987860;28;20185;-70
2024/03/05 04:48:40;;;;;;;39.47;23.17;;;;;;;9.14;72.18;95825.28;4987917;28;20231;-70
2024/03/05 04:51:09;;;;;;;39.00;26.53;;;;;;;9.14;71.82;95818.25;4986377;28;20778;-70
2024/03/05 04:53:36;;;;;;;35.77;20.80;;;;;;;9.11;72.00;95821.88;4987809;28;20467;-71
2024/03/05 04:56:06;;;;;;;44.87;25.00;;;;;;;9.10;72.28;95825.41;4987974;28;20404;-69
2024/03/05 04:58:31;;;;;;;38.30;22.13;;;;;;;9.12;72.37;95817.50;4988908;28;20868;-71
2024/03/05 05:00:57;;;;;;;38.20;23.27;;;;;;;9.06;71.88;95813.38;4988334;28;20415;-70
2024/03/05 05:03:22;;;;;;;38.43;24.20;;;;;;;8.75;73.61;95823.59;4989395;28;20216;-70
2024/03/05 05:05:47;;;;;;;35.97;20.70;;;;;;;8.89;73.36;95821.19;4988640;28;20187;-71
2024/03/05 05:08:13;;;;;;;36.97;23.13;;;;;;;8.97;73.11;95813.81;4998753;28;20179;-70
2024/03/05 05:10:39;;;;;;;39.90;22.93;;;;;;;8.99;72.42;95819.84;4991201;28;20287;-72
2024/03/05 05:13:04;;;;;;;36.00;21.10;;;;;;;8.93;73.67;95819.28;4992106;28;20192;-70
2024/03/05 05:15:30;;;;;;;42.80;22.20;;;;;;;8.94;72.95;95813.97;4987836;28;20550;-70
2024/03/05 05:17:58;;;;;;;47.77;25.13;;;;;;;9.04;72.79;95814.38;4987841;28;20169;-70
2024/03/05 05:20:24;;;;;;;38.83;22.50;;;;;;;8.98;72.89;95818.16;4987352;28;20218;-70
2024/03/05 05:22:49;;;;;;;32.60;20.77;;;;;;;9.08;72.75;95810.72;4981200;28;20469;-71
2024/03/05 05:25:16;;;;;;;36.10;21.10;;;;;;;8.86;73.25;95813.50;4982489;28;20428;-71
2024/03/05 05:27:42;;;;;;;43.20;23.70;;;;;;;8.93;73.22;95817.53;4985843;28;20265;-70
2024/03/05 05:30:08;;;;;;;40.20;21.90;;;;;;;8.85;73.17;95817.84;4985390;28;20494;-70
2024/03/05 05:32:37;;;;;;;38.10;22.50;;;;;;;8.88;73.73;95819.47;4988592;28;20292;-70
2024/03/05 05:35:03;;;;;;;43.83;25.47;;;;;;;8.98;72.97;95818.16;4986817;28;22082;-70
2024/03/05 05:37:29;;;;;;;40.03;23.70;;;;;;;8.94;72.70;95824.44;4989153;28;20493;-70
2024/03/05 05:39:55;;;;;;;40.00;24.30;;;;;;;8.96;72.73;95827.84;4990828;28;20311;-71
2024/03/05 05:42:23;;;;;;;45.70;22.53;;;;;;;9.04;72.79;95828.31;4989371;28;20476;-70
2024/03/05 05:44:52;;;;;;;40.77;24.30;;;;;;;9.10;72.45;95828.03;4990458;28;20180;-71
2024/03/05 05:47:19;;;;;;;50.57;25.60;;;;;;;9.13;72.50;95828.81;4989541;28;20447;-71
2024/03/05 05:49:44;;;;;;;40.67;23.10;;;;;;;8.94;73.10;95826.22;4989698;28;21168;-70
2024/03/05 05:52:10;;;;;;;36.47;20.80;;;;;;;8.93;73.34;95820.16;4988338;28;20460;-71
2024/03/05 05:54:42;;;;;;;45.80;23.60;;;;;;;8.93;73.26;95827.13;4985154;28;20200;-70
2024/03/05 05:57:11;;;;;;;37.90;21.60;;;;;;;8.95;73.85;95828.75;4982319;28;20185;-71
2024/03/05 05:59:39;;;;;;;41.87;24.67;;;;;;;8.92;74.03;95831.50;4991794;28;20432;-72
2024/03/05 06:02:05;;;;;;;41.90;23.37;;;;;;;8.89;74.23;95829.88;4987327;28;20490;-70
2024/03/05 06:04:33;;;;;;;44.40;25.27;;;;;;;8.93;73.97;95834.97;4991522;28;21337;-70
2024/03/05 06:06:59;;;;;;;51.73;23.80;;;;;;;8.97;74.10;95831.31;4983319;28;20714;-69
2024/03/05 06:09:28;;;;;;;38.60;21.93;;;;;;;8.73;75.47;95838.50;4995811;28;20514;-71
2024/03/05 06:11:54;;;;;;;52.83;22.80;;;;;;;8.76;75.69;95840.97;4984632;28;20204;-71
2024/03/05 06:14:20;;;;;;;44.23;23.20;;;;;;;8.55;75.86;95842.81;4997467;28;20542;-72
2024/03/05 06:16:46;;;;;;;46.73;23.57;;;;;;;8.73;75.82;95841.13;4996005;28;20428;-70
2024/03/05 06:19:11;;;;;;;41.20;24.20;;;;;;;8.63;76.09;95845.94;5001197;28;20207;-70
2024/03/05 06:21:37;;;;;;;39.03;21.73;;;;;;;8.80;75.79;95853.84;4978974;28;20178;-71
2024/03/05 06:24:03;;;;;;;41.57;23.27;;;;;;;8.92;75.33;95849.00;4982465;28;20197;-71
2024/03/05 06:26:34;;;;;;;45.97;24.20;;;;;;;8.85;75.80;95856.25;5004461;28;20188;-70
2024/03/05 06:28:59;;;;;;;44.57;24.67;;;;;;;8.82;76.29;95862.50;4998331;28;20814;-71
2024/03/05 06:31:25;;;;;;;44.60;24.50;;;;;;;8.88;75.42;95862.22;4973420;28;20467;-72
2024/03/05 06:33:51;;;;;;;41.53;23.90;;;;;;;8.77;76.16;95853.16;4981426;28;20209;-71
2024/03/05 06:36:19;;;;;;;41.70;25.20;;;;;;;8.61;76.50;95853.84;4984582;28;20199;-71
2024/03/05 06:38:44;;;;;;;46.20;26.97;;;;;;;8.53;77.40;95844.63;4984260;28;20216;-70
2024/03/05 06:41:10;;;;;;;36.83;22.70;;;;;;;8.28;78.71;95849.16;4982614;28;20436;-69
2024/03/05 06:43:38;;;;;;;49.47;24.10;;;;;;;8.20;78.91;95853.88;4984132;28;20203;-70
2024/03/05 06:46:04;;;;;;;45.53;26.47;;;;;;;8.52;77.55;95859.47;4984626;28;20195;-71
2024/03/05 06:48:32;;;;;;;41.30;25.00;;;;;;;8.34;78.84;95868.97;4983605;28;20416;-70
2024/03/05 06:51:04;;;;;;;50.63;24.97;;;;;;;8.64;78.00;95873.78;4971373;28;20228;-71
2024/03/05 06:58:58;;;;;;;37.70;23.50;;;;;;;8.86;76.64;95876.28;4992951;28;20415;-69
2024/03/05 07:01:27;;;;;;;46.93;24.93;;;;;;;8.75;77.31;95875.94;4987749;28;20440;-71
2024/03/05 07:03:52;;;;;;;39.47;25.70;;;;;;;8.89;77.33;95874.38;4985881;28;20200;-70
2024/03/05 07:06:18;;;;;;;46.03;22.73;;;;;;;8.91;76.98;95882.16;4985254;28;20415;-70
2024/03/05 07:08:47;;;;;;;48.47;24.93;;;;;;;8.75;77.19;95875.94;4984140;28;20172;-71
2024/03/05 07:11:15;;;;;;;46.03;25.20;;;;;;;8.58;78.38;95885.38;4982709;28;20786;-71
2024/03/05 07:13:42;;;;;;;42.60;24.07;;;;;;;8.86;77.49;95884.16;4983732;28;20439;-70
2024/03/05 07:16:09;;;;;;;53.17;25.57;;;;;;;8.81;77.74;95876.50;4983909;28;20436;-69
2024/03/05 07:18:36;;;;;;;51.33;24.43;;;;;;;8.85;77.59;95871.97;4984649;28;20416;-71
2024/03/05 07:21:02;;;;;;;53.90;25.27;;;;;;;8.87;77.06;95885.81;4984067;28;20412;-72
2024/03/05 07:23:30;;;;;;;44.90;25.53;;;;;;;8.97;76.67;95878.41;4984530;28;20470;-70
2024/03/05 07:25:56;;;;;;;43.43;23.37;;;;;;;8.98;77.10;95888.81;4983762;28;20428;-70
2024/03/05 07:28:22;;;;;;;48.27;26.43;;;;;;;8.89;76.97;95881.38;4988937;28;20431;-70
2024/03/05 07:30:48;;;;;;;47.50;27.63;;;;;;;9.04;76.59;95882.44;4987527;28;20943;-70
2024/03/05 07:33:13;;;;;;;45.43;23.50;;;;;;;9.00;76.73;95886.97;4987664;28;20460;-70
2024/03/05 07:35:40;;;;;;;68.00;27.30;;;;;;;9.03;76.23;95886.81;4988398;28;20193;-70
2024/03/05 07:38:07;;;;;;;140.77;35.27;;;;;;;8.97;77.07;95887.09;4988461;28;20227;-71
2024/03/05 07:40:34;;;;;;;42.70;25.67;;;;;;;8.90;76.83;95883.06;4988112;28;20446;-71
2024/03/05 07:43:04;;;;;;;45.73;26.97;;;;;;;8.87;77.34;95881.44;4983650;28;20476;-71
2024/03/05 07:45:33;;;;;;;42.73;25.27;;;;;;;8.70;78.39;95883.97;4988392;28;20431;-71
2024/03/05 07:47:58;;;;;;;45.80;26.87;;;;;;;8.73;77.98;95883.00;4988585;28;20471;-71
2024/03/05 07:50:24;;;;;;;45.20;25.63;;;;;;;8.99;77.51;95885.25;4988510;28;20412;-70
2024/03/05 07:52:59;;;;;;;45.73;26.20;;;;;;;9.11;76.64;95889.94;4984902;28;20212;-71
2024/03/05 07:55:26;;;;;;;55.17;27.87;;;;;;;9.01;77.24;95885.19;4980077;28;20612;-70
2024/03/05 07:57:56;;;;;;;42.07;24.10;;;;;;;9.38;76.20;95886.97;4986438;28;20439;-71
2024/03/05 08:00:22;;;;;;;56.10;26.33;;;;;;;9.31;75.61;95890.78;4987765;28;20927;-70
2024/03/05 08:02:49;;;;;;;51.37;25.97;;;;;;;9.25;76.03;95896.31;4986529;28;20515;-70
2024/03/05 08:05:21;;;;;;;47.33;25.67;;;;;;;9.14;76.39;95903.78;4989370;28;20438;-72
2024/03/05 08:07:48;;;;;;;52.93;26.53;;;;;;;9.13;76.71;95904.72;4988263;28;20415;-70
2024/03/05 08:10:16;;;;;;;49.80;24.97;;;;;;;9.24;76.63;95907.72;4986918;28;20427;-70
2024/03/05 08:12:43;;;;;;;50.20;26.17;;;;;;;9.25;76.16;95904.16;4988638;28;20476;-71
2024/03/05 08:15:12;;;;;;;44.47;25.27;;;;;;;9.22;76.17;95909.53;4988194;28;20416;-71
2024/03/05 08:17:38;;;;;;;38.57;24.67;;;;;;;9.28;75.73;95906.63;4988175;28;20556;-70
2024/03/05 08:20:06;;;;;;;38.53;23.47;;;;;;;9.31;75.29;95903.88;4987751;28;20437;-71
2024/03/05 08:22:32;;;;;;;38.33;22.73;;;;;;;9.38;74.64;95907.91;4986809;28;20490;-71
2024/03/05 08:24:57;;;;;;;36.67;21.87;;;;;;;9.38;74.85;95912.28;4987359;28;20424;-72
2024/03/05 08:27:22;;;;;;;37.53;22.27;;;;;;;9.33;74.80;95917.75;4970178;28;20189;-71
2024/03/05 08:29:51;;;;;;;38.53;21.73;;;;;;;9.12;76.02;95911.75;4987498;28;20188;-71
2024/03/05 08:32:17;;;;;;;39.17;23.23;;;;;;;9.17;75.92;95904.53;4987788;28;20259;-71
2024/03/05 08:34:43;;;;;;;39.17;24.00;;;;;;;9.20;76.12;95909.59;4984189;28;20550;-71
2024/03/05 08:37:11;;;;;;;48.30;23.80;;;;;;;9.00;77.05;95907.91;4990915;28;20495;-71
2024/03/05 08:39:39;;;;;;;45.97;25.30;;;;;;;9.11;76.37;95910.03;4993016;28;20572;-72
2024/03/05 08:42:04;;;;;;;43.47;22.47;;;;;;;9.01;76.94;95899.13;4992314;28;20440;-71
2024/03/05 08:44:30;;;;;;;46.37;24.80;;;;;;;9.11;76.88;95899.56;4993574;28;20467;-72
2024/03/05 08:46:55;;;;;;;39.60;23.57;;;;;;;9.20;76.16;95898.28;4989096;28;20257;-70
2024/03/05 08:49:20;;;;;;;39.13;23.63;;;;;;;9.25;75.61;95909.41;4988035;28;20179;-70
2024/03/05 08:51:46;;;;;;;35.83;22.63;;;;;;;9.04;77.08;95898.13;4986372;28;20525;-69
2024/03/05 08:54:12;;;;;;;39.93;23.20;;;;;;;8.98;76.94;95899.28;4987006;28;20197;-71
2024/03/05 08:56:39;;;;;;;39.13;23.37;;;;;;;9.17;76.32;95898.44;4987299;28;20263;-70
2024/03/05 08:59:07;;;;;;;40.33;23.90;;;;;;;9.13;76.79;95900.34;4986908;28;20419;-71
2024/03/05 09:01:33;;;;;;;39.00;23.13;;;;;;;9.32;76.16;95903.78;4986024;28;20412;-70
2024/03/05 09:04:00;;;;;;;38.07;23.60;;;;;;;9.33;76.25;95904.66;4985773;28;20447;-70
2024/03/05 09:06:27;;;;;;;45.00;24.20;;;;;;;9.46;76.54;95904.91;4986825;28;20180;-71
2024/03/05 09:08:52;;;;;;;46.40;26.70;;;;;;;9.49;76.00;95900.38;4986386;28;20420;-71
2024/03/05 09:11:18;;;;;;;42.33;24.87;;;;;;;9.64;75.56;95903.22;4967992;28;20466;-71
2024/03/05 09:13:46;;;;;;;50.90;25.63;;;;;;;9.72;75.18;95903.66;4985435;28;20239;-70
2024/03/05 09:16:12;;;;;;;50.27;25.67;;;;;;;9.65;74.88;95912.75;4986106;28;20184;-71
2024/03/05 09:18:38;;;;;;;41.90;24.50;;;;;;;9.77;74.75;95909.53;4986099;28;20419;-70
2024/03/05 09:21:04;;;;;;;48.20;25.53;;;;;;;9.88;74.56;95912.50;4985204;28;20416;-70
2024/03/05 09:23:30;;;;;;;40.73;23.90;;;;;;;9.93;74.07;95909.63;4984996;28;20440;-71
2024/03/05 09:25:55;;;;;;;40.43;23.83;;;;;;;9.82;74.14;95910.16;4968142;28;20426;-71
2024/03/05 09:28:21;;;;;;;38.50;24.33;;;;;;;9.88;73.88;95904.63;4985958;28;20629;-71
2024/03/05 09:30:46;;;;;;;33.13;22.90;;;;;;;10.02;72.83;95911.81;4985198;28;20358;-70
2024/03/05 09:33:12;;;;;;;35.87;22.73;;;;;;;10.14;72.60;95907.72;4985242;28;21008;-70
2024/03/05 09:35:39;;;;;;;42.17;22.83;;;;;;;10.17;72.55;95907.56;4985368;28;20880;-70
2024/03/05 09:38:05;;;;;;;51.73;24.93;;;;;;;10.30;72.47;95911.31;4988094;28;20408;-70
2024/03/05 09:40:30;;;;;;;43.93;23.20;;;;;;;10.43;71.49;95908.91;4987654;28;20877;-70
2024/03/05 09:42:59;;;;;;;48.80;24.07;;;;;;;10.44;71.50;95905.38;4985912;28;20204;-71
2024/03/05 09:45:28;;;;;;;39.30;22.97;;;;;;;10.43;72.33;95906.28;4986822;28;20177;-70
2024/03/05 09:47:54;;;;;;;53.17;24.10;;;;;;;10.57;72.45;95908.19;4985549;28;20412;-71
2024/03/05 09:50:21;;;;;;;49.30;24.97;;;;;;;10.63;71.73;95915.75;4986369;28;20423;-73
2024/03/05 09:52:48;;;;;;;63.13;24.77;;;;;;;10.66;70.32;95920.84;4968350;28;20212;-71
2024/03/05 09:55:14;;;;;;;31.37;21.53;;;;;;;10.71;69.76;95913.56;4987099;28;20499;-73
2024/03/05 09:57:40;;;;;;;36.63;21.97;;;;;;;10.64;71.32;95916.59;4986208;28;20852;-71
2024/03/05 10:00:10;;;;;;;34.43;23.47;;;;;;;10.68;71.63;95924.25;4979654;28;20252;-72
2024/03/05 10:02:35;;;;;;;33.03;21.50;;;;;;;10.74;70.20;95918.66;4985707;28;20400;-72
2024/03/05 10:05:02;;;;;;;38.90;21.43;;;;;;;10.83;68.38;95919.13;4987623;28;20475;-72
2024/03/05 10:07:27;;;;;;;45.30;22.13;;;;;;;10.81;68.68;95912.16;4986607;28;20891;-72
2024/03/05 10:10:11;;;;;;;33.73;21.00;;;;;;;10.86;68.02;95905.81;4986197;28;20424;-72
2024/03/05 10:12:39;;;;;;;36.67;19.57;;;;;;;10.92;68.28;95906.34;4985570;28;20230;-72
2024/03/05 10:15:20;;;;;;;32.73;21.10;;;;;;;11.12;67.80;95907.91;4985677;28;20424;-73
2024/03/05 10:17:50;;;;;;;42.00;22.93;;;;;;;11.12;67.81;95912.31;4985628;28;21443;-71
2024/03/05 10:20:26;;;;;;;32.10;19.23;;;;;;;11.14;66.77;95908.66;4985612;28;20507;-72
2024/03/05 10:22:53;;;;;;;36.23;17.83;;;;;;;11.19;67.16;95906.63;4978492;28;20442;-71
2024/03/05 10:25:20;;;;;;;24.77;17.00;;;;;;;11.18;66.41;95907.56;4987217;28;20420;-70
2024/03/05 10:27:46;;;;;;;33.33;17.13;;;;;;;11.32;66.66;95904.19;4985678;28;20447;-71
2024/03/05 10:30:31;;;;;;;42.67;19.27;;;;;;;11.21;66.59;95912.66;4985728;28;20448;-72
2024/03/05 10:32:59;;;;;;;38.80;16.30;;;;;;;10.99;67.65;95915.59;4985395;28;20470;-71
2024/03/05 10:35:25;;;;;;;27.47;18.03;;;;;;;11.02;68.06;95911.94;4987287;28;20420;-71
2024/03/05 10:38:00;;;;;;;33.03;17.27;;;;;;;11.15;67.09;95914.75;4986064;28;20454;-72
2024/03/05 10:40:28;;;;;;;32.93;17.53;;;;;;;11.14;66.88;95913.91;4985355;28;20426;-72
2024/03/05 10:42:58;;;;;;;22.37;14.57;;;;;;;11.02;67.14;95906.69;4984623;28;20459;-71
2024/03/05 10:45:26;;;;;;;23.80;14.70;;;;;;;11.00;67.02;95913.81;4985325;28;20407;-71
2024/03/05 10:47:53;;;;;;;21.00;14.63;;;;;;;10.99;67.16;95920.00;4985562;28;20431;-72
2024/03/05 10:50:19;;;;;;;26.70;14.60;;;;;;;11.09;66.68;95912.47;4985419;28;20519;-70
2024/03/05 10:52:47;;;;;;;22.70;15.63;;;;;;;10.99;67.00;95912.97;4984936;28;20522;-72
2024/03/05 10:55:14;;;;;;;40.50;16.07;;;;;;;10.99;67.12;95912.13;4985520;28;20408;-70
2024/03/05 11:00:26;;;;;;;24.83;14.03;;;;;;;11.05;65.37;95903.91;4987623;28;21224;-72
2024/03/05 11:02:56;;;;;;;18.83;13.83;;;;;;;10.76;67.84;95903.69;4988460;28;20444;-71
2024/03/05 11:05:22;;;;;;;20.80;13.67;;;;;;;10.74;67.99;95902.06;4989398;28;20195;-71
2024/03/05 11:07:48;;;;;;;18.80;14.67;;;;;;;10.71;68.62;95904.84;4989132;28;20416;-71
2024/03/05 11:10:13;;;;;;;20.80;14.70;;;;;;;10.85;67.34;95894.47;4988750;28;20897;-72
2024/03/05 11:12:42;;;;;;;23.57;14.67;;;;;;;10.79;67.14;95900.91;4988176;28;20193;-71
2024/03/05 11:15:12;;;;;;;20.17;13.20;;;;;;;10.64;66.89;95887.75;4989128;28;20916;-73
2024/03/05 11:17:39;;;;;;;22.17;13.50;;;;;;;10.58;67.50;95908.13;4988752;28;20927;-71
2024/03/05 11:20:11;;;;;;;31.23;13.93;;;;;;;10.61;67.68;95901.88;4989037;28;20713;-71
2024/03/05 11:22:43;;;;;;;24.87;13.10;;;;;;;10.58;66.87;95902.00;4989006;28;20550;-71
2024/03/05 11:25:29;;;;;;;25.93;13.77;;;;;;;10.52;67.71;95897.94;4989572;28;20446;-72
2024/03/05 11:27:56;;;;;;;29.80;15.63;;;;;;;10.55;67.61;95899.56;4989770;28;20416;-70
2024/03/05 11:30:22;;;;;;;24.73;16.90;;;;;;;10.51;68.50;95905.88;4989357;28;20435;-72